Terminal Aerodrome Forecast
Issued by NWS

Home | Current Version | Previous Version | Graphics & Text | Print | Product List | Glossary On
Versions: 1 2 3 4 5 6 7 8 9 10 11 12 13 14 15 16 17 18 19 20 21 22 23 24 25 26 27 28 29 30 31 32
465
FTUS43 KLOT 220540
TAFDPA
TAF
KDPA 220540Z 2206/2306 18009KT P6SM -RA SCT120 BKN250
     FM220700 21006KT P6SM SCT100 BKN250
     FM221300 24006KT P6SM BKN035
     FM222200 20006KT P6SM BKN040 PROB30 2222/2224 3SM TSRA OVC040CB
     FM230200 05005KT 5SM HZ SCT040 SCT250=

USA.gov is the U.S. government's official web portal to all federal, state and local government web resources and services.